sensor_id;sensor_type;location;lat;lon;timestamp;P1;durP1;ratioP1;P2;durP2;ratioP2
56102;SDS011;41970;48.774;9.280;2023-11-21T00:00:30;4.87;;;3.73;;
56102;SDS011;41970;48.774;9.280;2023-11-21T00:02:56;7.73;;;4.47;;
56102;SDS011;41970;48.774;9.280;2023-11-21T00:05:22;9.17;;;4.47;;
56102;SDS011;41970;48.774;9.280;2023-11-21T00:07:48;6.10;;;3.40;;
56102;SDS011;41970;48.774;9.280;2023-11-21T00:10:14;7.97;;;3.63;;
56102;SDS011;41970;48.774;9.280;2023-11-21T00:12:41;5.17;;;3.43;;
56102;SDS011;41970;48.774;9.280;2023-11-21T00:15:07;5.13;;;3.27;;
56102;SDS011;41970;48.774;9.280;2023-11-21T00:17:37;4.93;;;3.53;;
56102;SDS011;41970;48.774;9.280;2023-11-21T00:20:04;6.10;;;3.43;;
56102;SDS011;41970;48.774;9.280;2023-11-21T00:22:33;8.87;;;3.33;;
56102;SDS011;41970;48.774;9.280;2023-11-21T00:24:59;6.00;;;3.50;;
56102;SDS011;41970;48.774;9.280;2023-11-21T00:27:25;7.57;;;3.30;;
56102;SDS011;41970;48.774;9.280;2023-11-21T00:29:51;6.63;;;3.70;;
56102;SDS011;41970;48.774;9.280;2023-11-21T00:32:17;6.03;;;4.83;;
56102;SDS011;41970;48.774;9.280;2023-11-21T00:34:42;5.93;;;4.30;;
56102;SDS011;41970;48.774;9.280;2023-11-21T00:37:08;12.20;;;4.90;;
56102;SDS011;41970;48.774;9.280;2023-11-21T00:39:34;9.03;;;3.83;;
56102;SDS011;41970;48.774;9.280;2023-11-21T00:42:00;5.30;;;4.00;;
56102;SDS011;41970;48.774;9.280;2023-11-21T00:44:26;6.53;;;4.00;;
56102;SDS011;41970;48.774;9.280;2023-11-21T00:46:51;7.90;;;4.30;;
56102;SDS011;41970;48.774;9.280;2023-11-21T00:49:17;5.10;;;3.50;;
56102;SDS011;41970;48.774;9.280;2023-11-21T00:51:43;5.93;;;3.93;;
56102;SDS011;41970;48.774;9.280;2023-11-21T00:54:08;7.60;;;3.77;;
56102;SDS011;41970;48.774;9.280;2023-11-21T00:56:34;8.30;;;3.73;;
56102;SDS011;41970;48.774;9.280;2023-11-21T00:59:00;5.53;;;3.10;;
56102;SDS011;41970;48.774;9.280;2023-11-21T01:01:25;6.53;;;3.13;;
56102;SDS011;41970;48.774;9.280;2023-11-21T01:03:51;4.03;;;3.10;;
56102;SDS011;41970;48.774;9.280;2023-11-21T01:06:17;6.80;;;2.57;;
56102;SDS011;41970;48.774;9.280;2023-11-21T01:08:43;4.00;;;2.43;;
56102;SDS011;41970;48.774;9.280;2023-11-21T01:11:09;5.60;;;2.50;;
56102;SDS011;41970;48.774;9.280;2023-11-21T01:13:37;5.73;;;2.33;;
56102;SDS011;41970;48.774;9.280;2023-11-21T01:16:04;5.90;;;3.33;;
56102;SDS011;41970;48.774;9.280;2023-11-21T01:18:31;3.70;;;2.20;;
56102;SDS011;41970;48.774;9.280;2023-11-21T01:20:57;6.83;;;2.10;;
56102;SDS011;41970;48.774;9.280;2023-11-21T01:23:25;5.20;;;2.20;;
56102;SDS011;41970;48.774;9.280;2023-11-21T01:25:52;4.83;;;2.07;;
56102;SDS011;41970;48.774;9.280;2023-11-21T01:28:18;3.73;;;1.80;;
56102;SDS011;41970;48.774;9.280;2023-11-21T01:30:44;4.43;;;2.33;;
56102;SDS011;41970;48.774;9.280;2023-11-21T01:33:11;4.67;;;2.17;;
56102;SDS011;41970;48.774;9.280;2023-11-21T01:35:36;3.10;;;2.27;;
56102;SDS011;41970;48.774;9.280;2023-11-21T01:38:02;6.00;;;2.50;;
56102;SDS011;41970;48.774;9.280;2023-11-21T01:40:29;4.90;;;1.83;;
56102;SDS011;41970;48.774;9.280;2023-11-21T01:42:55;3.33;;;2.00;;
56102;SDS011;41970;48.774;9.280;2023-11-21T01:45:22;3.50;;;2.30;;
56102;SDS011;41970;48.774;9.280;2023-11-21T01:47:50;7.53;;;2.30;;
56102;SDS011;41970;48.774;9.280;2023-11-21T01:50:16;2.17;;;1.60;;
56102;SDS011;41970;48.774;9.280;2023-11-21T01:52:43;5.87;;;2.23;;
56102;SDS011;41970;48.774;9.280;2023-11-21T01:55:10;8.00;;;2.20;;
56102;SDS011;41970;48.774;9.280;2023-11-21T01:57:37;2.10;;;1.67;;
56102;SDS011;41970;48.774;9.280;2023-11-21T02:00:03;4.80;;;2.07;;
56102;SDS011;41970;48.774;9.280;2023-11-21T02:02:41;4.00;;;2.40;;
56102;SDS011;41970;48.774;9.280;2023-11-21T02:05:09;7.63;;;2.10;;
56102;SDS011;41970;48.774;9.280;2023-11-21T02:07:39;6.73;;;2.20;;
56102;SDS011;41970;48.774;9.280;2023-11-21T02:10:07;2.33;;;1.67;;
56102;SDS011;41970;48.774;9.280;2023-11-21T02:12:33;3.30;;;1.90;;
56102;SDS011;41970;48.774;9.280;2023-11-21T02:15:01;5.77;;;2.23;;
56102;SDS011;41970;48.774;9.280;2023-11-21T02:17:30;3.97;;;2.10;;
56102;SDS011;41970;48.774;9.280;2023-11-21T02:19:57;3.27;;;1.43;;
56102;SDS011;41970;48.774;9.280;2023-11-21T02:22:24;4.87;;;2.10;;
56102;SDS011;41970;48.774;9.280;2023-11-21T02:24:56;2.30;;;1.93;;
56102;SDS011;41970;48.774;9.280;2023-11-21T02:27:23;2.97;;;1.80;;
56102;SDS011;41970;48.774;9.280;2023-11-21T02:29:49;4.43;;;1.87;;
56102;SDS011;41970;48.774;9.280;2023-11-21T02:32:15;2.53;;;1.90;;
56102;SDS011;41970;48.774;9.280;2023-11-21T02:34:44;3.47;;;2.00;;
56102;SDS011;41970;48.774;9.280;2023-11-21T02:37:10;3.63;;;2.00;;
56102;SDS011;41970;48.774;9.280;2023-11-21T02:39:36;2.17;;;1.60;;
56102;SDS011;41970;48.774;9.280;2023-11-21T02:42:01;6.40;;;2.30;;
56102;SDS011;41970;48.774;9.280;2023-11-21T02:44:27;2.17;;;1.40;;
56102;SDS011;41970;48.774;9.280;2023-11-21T02:46:53;3.53;;;1.70;;
56102;SDS011;41970;48.774;9.280;2023-11-21T02:49:18;2.37;;;1.67;;
56102;SDS011;41970;48.774;9.280;2023-11-21T02:51:44;3.83;;;2.17;;
56102;SDS011;41970;48.774;9.280;2023-11-21T02:54:10;2.27;;;1.67;;
56102;SDS011;41970;48.774;9.280;2023-11-21T02:56:36;2.50;;;1.83;;
56102;SDS011;41970;48.774;9.280;2023-11-21T02:59:02;2.43;;;1.33;;
56102;SDS011;41970;48.774;9.280;2023-11-21T03:01:28;3.67;;;1.90;;
56102;SDS011;41970;48.774;9.280;2023-11-21T03:03:54;3.50;;;1.77;;
56102;SDS011;41970;48.774;9.280;2023-11-21T03:06:20;3.00;;;1.63;;
56102;SDS011;41970;48.774;9.280;2023-11-21T03:08:47;2.00;;;1.57;;
56102;SDS011;41970;48.774;9.280;2023-11-21T03:11:13;4.17;;;1.77;;
56102;SDS011;41970;48.774;9.280;2023-11-21T03:13:40;2.70;;;1.63;;
56102;SDS011;41970;48.774;9.280;2023-11-21T03:16:09;3.50;;;1.50;;
56102;SDS011;41970;48.774;9.280;2023-11-21T03:18:35;2.70;;;1.60;;
56102;SDS011;41970;48.774;9.280;2023-11-21T03:21:02;2.17;;;1.20;;
56102;SDS011;41970;48.774;9.280;2023-11-21T03:23:28;2.80;;;1.30;;
56102;SDS011;41970;48.774;9.280;2023-11-21T03:25:54;1.57;;;1.30;;
56102;SDS011;41970;48.774;9.280;2023-11-21T03:28:20;4.27;;;2.10;;
56102;SDS011;41970;48.774;9.280;2023-11-21T03:30:45;4.47;;;1.37;;
56102;SDS011;41970;48.774;9.280;2023-11-21T03:33:11;2.53;;;1.10;;
56102;SDS011;41970;48.774;9.280;2023-11-21T03:35:37;5.63;;;1.70;;
56102;SDS011;41970;48.774;9.280;2023-11-21T03:38:03;3.23;;;1.40;;
56102;SDS011;41970;48.774;9.280;2023-11-21T03:40:29;1.93;;;1.30;;
56102;SDS011;41970;48.774;9.280;2023-11-21T03:42:56;4.73;;;1.27;;
56102;SDS011;41970;48.774;9.280;2023-11-21T03:45:22;3.90;;;1.20;;
56102;SDS011;41970;48.774;9.280;2023-11-21T03:47:48;1.70;;;0.97;;
56102;SDS011;41970;48.774;9.280;2023-11-21T03:50:14;2.00;;;1.30;;
56102;SDS011;41970;48.774;9.280;2023-11-21T03:52:40;1.77;;;1.43;;
56102;SDS011;41970;48.774;9.280;2023-11-21T03:55:06;1.67;;;1.17;;
56102;SDS011;41970;48.774;9.280;2023-11-21T03:57:32;3.67;;;1.27;;
56102;SDS011;41970;48.774;9.280;2023-11-21T03:59:58;2.23;;;1.73;;
56102;SDS011;41970;48.774;9.280;2023-11-21T04:02:24;1.87;;;1.27;;
56102;SDS011;41970;48.774;9.280;2023-11-21T04:04:51;2.60;;;1.37;;
56102;SDS011;41970;48.774;9.280;2023-11-21T04:07:17;2.03;;;1.70;;
56102;SDS011;41970;48.774;9.280;2023-11-21T04:09:42;1.53;;;1.20;;
56102;SDS011;41970;48.774;9.280;2023-11-21T04:12:08;4.00;;;1.50;;
56102;SDS011;41970;48.774;9.280;2023-11-21T04:14:34;2.27;;;1.37;;
56102;SDS011;41970;48.774;9.280;2023-11-21T04:17:00;1.90;;;1.23;;
56102;SDS011;41970;48.774;9.280;2023-11-21T04:19:26;4.30;;;1.30;;
56102;SDS011;41970;48.774;9.280;2023-11-21T04:21:52;2.80;;;1.60;;
56102;SDS011;41970;48.774;9.280;2023-11-21T04:24:18;5.90;;;1.80;;
56102;SDS011;41970;48.774;9.280;2023-11-21T04:26:44;4.00;;;1.27;;
56102;SDS011;41970;48.774;9.280;2023-11-21T04:29:09;2.33;;;1.20;;
56102;SDS011;41970;48.774;9.280;2023-11-21T04:31:35;1.80;;;1.50;;
56102;SDS011;41970;48.774;9.280;2023-11-21T04:34:01;2.53;;;1.40;;
56102;SDS011;41970;48.774;9.280;2023-11-21T04:36:29;5.80;;;1.80;;
56102;SDS011;41970;48.774;9.280;2023-11-21T04:38:55;2.27;;;1.30;;
56102;SDS011;41970;48.774;9.280;2023-11-21T04:41:21;2.47;;;0.93;;
56102;SDS011;41970;48.774;9.280;2023-11-21T04:43:47;2.50;;;1.20;;
56102;SDS011;41970;48.774;9.280;2023-11-21T04:46:14;3.00;;;1.30;;
56102;SDS011;41970;48.774;9.280;2023-11-21T04:48:40;1.77;;;1.10;;
56102;SDS011;41970;48.774;9.280;2023-11-21T04:51:06;1.80;;;1.33;;
56102;SDS011;41970;48.774;9.280;2023-11-21T04:53:32;1.53;;;1.27;;
56102;SDS011;41970;48.774;9.280;2023-11-21T04:55:57;1.23;;;1.13;;
56102;SDS011;41970;48.774;9.280;2023-11-21T04:58:24;2.70;;;1.20;;
56102;SDS011;41970;48.774;9.280;2023-11-21T05:00:49;1.47;;;0.90;;
56102;SDS011;41970;48.774;9.280;2023-11-21T05:03:15;1.10;;;0.80;;
56102;SDS011;41970;48.774;9.280;2023-11-21T05:05:41;1.30;;;1.20;;
56102;SDS011;41970;48.774;9.280;2023-11-21T05:08:07;5.90;;;1.30;;
56102;SDS011;41970;48.774;9.280;2023-11-21T05:10:33;1.33;;;0.97;;
56102;SDS011;41970;48.774;9.280;2023-11-21T05:12:59;4.60;;;1.20;;
56102;SDS011;41970;48.774;9.280;2023-11-21T05:15:25;1.37;;;1.10;;
56102;SDS011;41970;48.774;9.280;2023-11-21T05:17:52;1.07;;;0.90;;
56102;SDS011;41970;48.774;9.280;2023-11-21T05:20:19;2.67;;;1.17;;
56102;SDS011;41970;48.774;9.280;2023-11-21T05:22:46;2.37;;;1.20;;
56102;SDS011;41970;48.774;9.280;2023-11-21T05:25:13;2.07;;;1.07;;
56102;SDS011;41970;48.774;9.280;2023-11-21T05:27:39;2.57;;;1.20;;
56102;SDS011;41970;48.774;9.280;2023-11-21T05:30:05;1.30;;;1.10;;
56102;SDS011;41970;48.774;9.280;2023-11-21T05:32:32;1.50;;;0.83;;
56102;SDS011;41970;48.774;9.280;2023-11-21T05:34:59;3.03;;;1.20;;
56102;SDS011;41970;48.774;9.280;2023-11-21T05:37:24;1.50;;;1.03;;
56102;SDS011;41970;48.774;9.280;2023-11-21T05:39:52;2.87;;;1.40;;
56102;SDS011;41970;48.774;9.280;2023-11-21T05:42:18;2.00;;;1.33;;
56102;SDS011;41970;48.774;9.280;2023-11-21T05:44:44;2.17;;;1.97;;
56102;SDS011;41970;48.774;9.280;2023-11-21T05:47:10;3.10;;;1.30;;
56102;SDS011;41970;48.774;9.280;2023-11-21T05:49:36;3.23;;;1.10;;
56102;SDS011;41970;48.774;9.280;2023-11-21T05:52:02;2.13;;;1.40;;
56102;SDS011;41970;48.774;9.280;2023-11-21T05:54:28;2.57;;;1.03;;
56102;SDS011;41970;48.774;9.280;2023-11-21T05:56:54;4.07;;;1.60;;
56102;SDS011;41970;48.774;9.280;2023-11-21T05:59:20;3.20;;;1.20;;
56102;SDS011;41970;48.774;9.280;2023-11-21T06:01:45;2.53;;;1.50;;
56102;SDS011;41970;48.774;9.280;2023-11-21T06:04:11;1.87;;;1.10;;
56102;SDS011;41970;48.774;9.280;2023-11-21T06:06:38;2.53;;;1.33;;
56102;SDS011;41970;48.774;9.280;2023-11-21T06:09:04;1.07;;;0.97;;
56102;SDS011;41970;48.774;9.280;2023-11-21T06:11:31;1.30;;;1.00;;
56102;SDS011;41970;48.774;9.280;2023-11-21T06:13:57;2.13;;;1.57;;
56102;SDS011;41970;48.774;9.280;2023-11-21T06:16:23;1.30;;;1.20;;
56102;SDS011;41970;48.774;9.280;2023-11-21T06:18:49;1.53;;;1.40;;
56102;SDS011;41970;48.774;9.280;2023-11-21T06:21:15;1.80;;;1.57;;
56102;SDS011;41970;48.774;9.280;2023-11-21T06:23:42;4.63;;;1.90;;
56102;SDS011;41970;48.774;9.280;2023-11-21T06:26:07;1.93;;;1.47;;
56102;SDS011;41970;48.774;9.280;2023-11-21T06:28:34;2.17;;;1.27;;
56102;SDS011;41970;48.774;9.280;2023-11-21T06:31:01;2.13;;;1.40;;
56102;SDS011;41970;48.774;9.280;2023-11-21T06:33:32;1.47;;;1.23;;
56102;SDS011;41970;48.774;9.280;2023-11-21T06:35:59;1.90;;;1.50;;
56102;SDS011;41970;48.774;9.280;2023-11-21T06:38:27;1.93;;;1.40;;
56102;SDS011;41970;48.774;9.280;2023-11-21T06:40:55;1.27;;;1.00;;
56102;SDS011;41970;48.774;9.280;2023-11-21T06:43:23;2.10;;;1.40;;
56102;SDS011;41970;48.774;9.280;2023-11-21T06:45:49;2.90;;;1.40;;
56102;SDS011;41970;48.774;9.280;2023-11-21T06:48:15;3.47;;;1.97;;
56102;SDS011;41970;48.774;9.280;2023-11-21T06:50:40;3.37;;;1.57;;
56102;SDS011;41970;48.774;9.280;2023-11-21T06:53:06;1.50;;;1.20;;
56102;SDS011;41970;48.774;9.280;2023-11-21T06:55:33;1.03;;;0.93;;
56102;SDS011;41970;48.774;9.280;2023-11-21T06:57:59;1.80;;;1.40;;
56102;SDS011;41970;48.774;9.280;2023-11-21T07:00:25;1.53;;;1.20;;
56102;SDS011;41970;48.774;9.280;2023-11-21T07:02:53;1.40;;;1.07;;
56102;SDS011;41970;48.774;9.280;2023-11-21T07:05:20;1.90;;;1.30;;
56102;SDS011;41970;48.774;9.280;2023-11-21T07:07:47;2.00;;;1.57;;
56102;SDS011;41970;48.774;9.280;2023-11-21T07:10:14;1.40;;;1.30;;
56102;SDS011;41970;48.774;9.280;2023-11-21T07:12:39;6.80;;;1.90;;
56102;SDS011;41970;48.774;9.280;2023-11-21T07:15:06;2.47;;;1.67;;
56102;SDS011;41970;48.774;9.280;2023-11-21T07:17:37;2.00;;;1.40;;
56102;SDS011;41970;48.774;9.280;2023-11-21T07:20:03;3.33;;;1.33;;
56102;SDS011;41970;48.774;9.280;2023-11-21T07:22:29;1.30;;;1.20;;
56102;SDS011;41970;48.774;9.280;2023-11-21T07:24:55;1.83;;;1.60;;
56102;SDS011;41970;48.774;9.280;2023-11-21T07:27:23;4.20;;;1.57;;
56102;SDS011;41970;48.774;9.280;2023-11-21T07:29:49;1.63;;;1.33;;
56102;SDS011;41970;48.774;9.280;2023-11-21T07:32:15;3.50;;;1.90;;
56102;SDS011;41970;48.774;9.280;2023-11-21T07:34:41;1.30;;;1.03;;
56102;SDS011;41970;48.774;9.280;2023-11-21T07:37:07;2.43;;;1.27;;
56102;SDS011;41970;48.774;9.280;2023-11-21T07:39:34;1.77;;;1.10;;
56102;SDS011;41970;48.774;9.280;2023-11-21T07:42:01;2.17;;;1.17;;
56102;SDS011;41970;48.774;9.280;2023-11-21T07:44:27;1.43;;;1.30;;
56102;SDS011;41970;48.774;9.280;2023-11-21T07:46:54;3.00;;;2.13;;
56102;SDS011;41970;48.774;9.280;2023-11-21T07:49:22;1.60;;;1.50;;
56102;SDS011;41970;48.774;9.280;2023-11-21T07:51:49;3.93;;;1.97;;
56102;SDS011;41970;48.774;9.280;2023-11-21T07:54:16;3.50;;;1.60;;
56102;SDS011;41970;48.774;9.280;2023-11-21T07:56:41;3.53;;;1.60;;
56102;SDS011;41970;48.774;9.280;2023-11-21T07:59:07;2.93;;;1.80;;
56102;SDS011;41970;48.774;9.280;2023-11-21T08:01:33;2.50;;;2.07;;
56102;SDS011;41970;48.774;9.280;2023-11-21T08:03:59;2.30;;;1.40;;
56102;SDS011;41970;48.774;9.280;2023-11-21T08:06:28;2.77;;;1.80;;
56102;SDS011;41970;48.774;9.280;2023-11-21T08:08:58;1.60;;;1.50;;
56102;SDS011;41970;48.774;9.280;2023-11-21T08:11:24;5.33;;;1.67;;
56102;SDS011;41970;48.774;9.280;2023-11-21T08:13:49;2.77;;;1.70;;
56102;SDS011;41970;48.774;9.280;2023-11-21T08:16:15;1.53;;;1.43;;
56102;SDS011;41970;48.774;9.280;2023-11-21T08:18:41;1.80;;;1.40;;
56102;SDS011;41970;48.774;9.280;2023-11-21T08:21:07;4.50;;;1.70;;
56102;SDS011;41970;48.774;9.280;2023-11-21T08:23:33;3.33;;;1.20;;
56102;SDS011;41970;48.774;9.280;2023-11-21T08:25:59;8.13;;;1.90;;
56102;SDS011;41970;48.774;9.280;2023-11-21T08:28:25;2.03;;;1.70;;
56102;SDS011;41970;48.774;9.280;2023-11-21T08:30:54;2.40;;;1.47;;
56102;SDS011;41970;48.774;9.280;2023-11-21T08:33:19;2.03;;;1.43;;
56102;SDS011;41970;48.774;9.280;2023-11-21T08:35:45;2.70;;;1.77;;
56102;SDS011;41970;48.774;9.280;2023-11-21T08:38:11;1.90;;;1.57;;
56102;SDS011;41970;48.774;9.280;2023-11-21T08:40:37;2.00;;;1.50;;
56102;SDS011;41970;48.774;9.280;2023-11-21T08:43:03;2.20;;;1.90;;
56102;SDS011;41970;48.774;9.280;2023-11-21T08:45:33;3.70;;;1.60;;
56102;SDS011;41970;48.774;9.280;2023-11-21T08:47:59;2.10;;;1.70;;
56102;SDS011;41970;48.774;9.280;2023-11-21T08:50:25;3.17;;;1.60;;
56102;SDS011;41970;48.774;9.280;2023-11-21T08:52:51;1.67;;;1.33;;
56102;SDS011;41970;48.774;9.280;2023-11-21T08:55:17;2.30;;;1.87;;
56102;SDS011;41970;48.774;9.280;2023-11-21T08:57:45;2.90;;;2.13;;
56102;SDS011;41970;48.774;9.280;2023-11-21T09:00:14;1.90;;;1.70;;
56102;SDS011;41970;48.774;9.280;2023-11-21T09:02:42;1.73;;;1.27;;
56102;SDS011;41970;48.774;9.280;2023-11-21T09:05:12;2.17;;;1.40;;
56102;SDS011;41970;48.774;9.280;2023-11-21T09:07:42;1.47;;;1.37;;
56102;SDS011;41970;48.774;9.280;2023-11-21T09:10:08;1.70;;;1.60;;
56102;SDS011;41970;48.774;9.280;2023-11-21T09:12:37;4.10;;;1.63;;
56102;SDS011;41970;48.774;9.280;2023-11-21T09:15:03;1.27;;;1.10;;
56102;SDS011;41970;48.774;9.280;2023-11-21T09:17:30;1.80;;;1.70;;
56102;SDS011;41970;48.774;9.280;2023-11-21T09:19:57;3.30;;;1.63;;
56102;SDS011;41970;48.774;9.280;2023-11-21T09:22:22;1.57;;;1.47;;
56102;SDS011;41970;48.774;9.280;2023-11-21T09:24:50;1.83;;;1.43;;
56102;SDS011;41970;48.774;9.280;2023-11-21T09:27:16;2.33;;;1.17;;
56102;SDS011;41970;48.774;9.280;2023-11-21T09:29:42;1.67;;;1.40;;
56102;SDS011;41970;48.774;9.280;2023-11-21T09:32:08;3.10;;;1.50;;
56102;SDS011;41970;48.774;9.280;2023-11-21T09:34:37;2.70;;;1.80;;
56102;SDS011;41970;48.774;9.280;2023-11-21T09:37:06;2.33;;;1.33;;
56102;SDS011;41970;48.774;9.280;2023-11-21T09:39:32;2.90;;;1.60;;
56102;SDS011;41970;48.774;9.280;2023-11-21T09:42:04;2.20;;;2.00;;
56102;SDS011;41970;48.774;9.280;2023-11-21T09:44:41;2.40;;;1.63;;
56102;SDS011;41970;48.774;9.280;2023-11-21T09:47:10;2.80;;;1.73;;
56102;SDS011;41970;48.774;9.280;2023-11-21T09:49:41;2.17;;;1.97;;
56102;SDS011;41970;48.774;9.280;2023-11-21T09:52:12;1.73;;;1.23;;
56102;SDS011;41970;48.774;9.280;2023-11-21T09:54:43;2.97;;;1.53;;
56102;SDS011;41970;48.774;9.280;2023-11-21T09:57:09;2.07;;;1.43;;
56102;SDS011;41970;48.774;9.280;2023-11-21T09:59:35;1.87;;;1.30;;
56102;SDS011;41970;48.774;9.280;2023-11-21T10:02:03;3.03;;;1.60;;
56102;SDS011;41970;48.774;9.280;2023-11-21T10:04:29;2.77;;;1.80;;
56102;SDS011;41970;48.774;9.280;2023-11-21T10:06:56;2.20;;;1.37;;
56102;SDS011;41970;48.774;9.280;2023-11-21T10:09:23;1.70;;;1.50;;
56102;SDS011;41970;48.774;9.280;2023-11-21T10:11:52;2.40;;;1.40;;
56102;SDS011;41970;48.774;9.280;2023-11-21T10:14:18;2.27;;;1.57;;
56102;SDS011;41970;48.774;9.280;2023-11-21T10:16:46;3.23;;;1.67;;
56102;SDS011;41970;48.774;9.280;2023-11-21T10:19:14;2.10;;;1.43;;
56102;SDS011;41970;48.774;9.280;2023-11-21T10:21:41;2.13;;;1.80;;
56102;SDS011;41970;48.774;9.280;2023-11-21T10:24:07;2.57;;;1.40;;
56102;SDS011;41970;48.774;9.280;2023-11-21T10:26:33;3.20;;;1.73;;
56102;SDS011;41970;48.774;9.280;2023-11-21T10:29:01;3.47;;;1.97;;
56102;SDS011;41970;48.774;9.280;2023-11-21T10:31:31;12.77;;;1.93;;
56102;SDS011;41970;48.774;9.280;2023-11-21T10:34:11;1.90;;;1.50;;
56102;SDS011;41970;48.774;9.280;2023-11-21T10:36:42;1.67;;;1.23;;
56102;SDS011;41970;48.774;9.280;2023-11-21T10:39:08;1.80;;;1.33;;
56102;SDS011;41970;48.774;9.280;2023-11-21T10:41:35;3.07;;;1.70;;
56102;SDS011;41970;48.774;9.280;2023-11-21T10:44:01;2.37;;;1.60;;
56102;SDS011;41970;48.774;9.280;2023-11-21T10:46:32;3.50;;;2.20;;
56102;SDS011;41970;48.774;9.280;2023-11-21T10:49:01;2.07;;;1.53;;
56102;SDS011;41970;48.774;9.280;2023-11-21T10:51:27;4.50;;;2.60;;
56102;SDS011;41970;48.774;9.280;2023-11-21T10:53:53;4.20;;;2.77;;
56102;SDS011;41970;48.774;9.280;2023-11-21T10:56:19;4.67;;;3.43;;
56102;SDS011;41970;48.774;9.280;2023-11-21T10:58:49;2.23;;;1.70;;
56102;SDS011;41970;48.774;9.280;2023-11-21T11:01:18;6.53;;;3.07;;
56102;SDS011;41970;48.774;9.280;2023-11-21T11:03:46;3.77;;;2.23;;
56102;SDS011;41970;48.774;9.280;2023-11-21T11:06:13;2.40;;;2.20;;
56102;SDS011;41970;48.774;9.280;2023-11-21T11:08:40;2.53;;;2.33;;
56102;SDS011;41970;48.774;9.280;2023-11-21T11:11:06;3.50;;;2.20;;
56102;SDS011;41970;48.774;9.280;2023-11-21T11:13:32;2.73;;;2.40;;
56102;SDS011;41970;48.774;9.280;2023-11-21T11:15:59;2.33;;;1.60;;
56102;SDS011;41970;48.774;9.280;2023-11-21T11:18:32;1.10;;;0.90;;
56102;SDS011;41970;48.774;9.280;2023-11-21T11:21:01;1.10;;;0.80;;
56102;SDS011;41970;48.774;9.280;2023-11-21T11:26:39;1.40;;;1.00;;
56102;SDS011;41970;48.774;9.280;2023-11-21T11:29:19;1.30;;;1.20;;
56102;SDS011;41970;48.774;9.280;2023-11-21T11:34:35;3.70;;;2.50;;
56102;SDS011;41970;48.774;9.280;2023-11-21T11:37:08;3.13;;;2.20;;
56102;SDS011;41970;48.774;9.280;2023-11-21T11:39:35;2.17;;;1.60;;
56102;SDS011;41970;48.774;9.280;2023-11-21T11:42:02;1.50;;;1.20;;
56102;SDS011;41970;48.774;9.280;2023-11-21T11:47:18;1.30;;;1.20;;
56102;SDS011;41970;48.774;9.280;2023-11-21T11:49:56;4.00;;;1.30;;
56102;SDS011;41970;48.774;9.280;2023-11-21T11:54:58;2.47;;;1.20;;
56102;SDS011;41970;48.774;9.280;2023-11-21T11:57:25;1.90;;;1.40;;
56102;SDS011;41970;48.774;9.280;2023-11-21T12:02:52;1.60;;;1.30;;
56102;SDS011;41970;48.774;9.280;2023-11-21T12:05:21;3.80;;;1.67;;
56102;SDS011;41970;48.774;9.280;2023-11-21T12:10:23;2.33;;;2.13;;
56102;SDS011;41970;48.774;9.280;2023-11-21T12:13:05;1.90;;;1.73;;
56102;SDS011;41970;48.774;9.280;2023-11-21T12:15:33;1.90;;;1.70;;
56102;SDS011;41970;48.774;9.280;2023-11-21T12:18:00;1.60;;;1.50;;
56102;SDS011;41970;48.774;9.280;2023-11-21T12:20:26;1.90;;;1.70;;
56102;SDS011;41970;48.774;9.280;2023-11-21T12:22:54;1.77;;;1.67;;
56102;SDS011;41970;48.774;9.280;2023-11-21T12:27:46;2.07;;;1.53;;
56102;SDS011;41970;48.774;9.280;2023-11-21T12:30:15;1.90;;;1.67;;
56102;SDS011;41970;48.774;9.280;2023-11-21T12:32:43;2.33;;;2.13;;
56102;SDS011;41970;48.774;9.280;2023-11-21T12:35:11;2.00;;;1.60;;
56102;SDS011;41970;48.774;9.280;2023-11-21T12:37:37;2.10;;;1.90;;
56102;SDS011;41970;48.774;9.280;2023-11-21T12:40:05;3.50;;;1.60;;
56102;SDS011;41970;48.774;9.280;2023-11-21T12:42:33;2.20;;;1.57;;
56102;SDS011;41970;48.774;9.280;2023-11-21T12:47:57;1.90;;;1.80;;
56102;SDS011;41970;48.774;9.280;2023-11-21T12:50:26;1.90;;;1.70;;
56102;SDS011;41970;48.774;9.280;2023-11-21T12:53:03;3.83;;;1.70;;
56102;SDS011;41970;48.774;9.280;2023-11-21T12:55:33;1.30;;;1.20;;
56102;SDS011;41970;48.774;9.280;2023-11-21T12:58:02;2.10;;;1.87;;
56102;SDS011;41970;48.774;9.280;2023-11-21T13:00:37;2.57;;;1.90;;
56102;SDS011;41970;48.774;9.280;2023-11-21T13:03:13;1.60;;;1.30;;
56102;SDS011;41970;48.774;9.280;2023-11-21T13:05:50;3.60;;;1.50;;
56102;SDS011;41970;48.774;9.280;2023-11-21T13:08:20;1.47;;;1.37;;
56102;SDS011;41970;48.774;9.280;2023-11-21T13:10:51;2.03;;;1.83;;
56102;SDS011;41970;48.774;9.280;2023-11-21T13:13:19;4.40;;;3.00;;
56102;SDS011;41970;48.774;9.280;2023-11-21T13:15:52;3.03;;;2.17;;
56102;SDS011;41970;48.774;9.280;2023-11-21T13:18:19;2.70;;;1.90;;
56102;SDS011;41970;48.774;9.280;2023-11-21T13:20:46;2.83;;;1.77;;
56102;SDS011;41970;48.774;9.280;2023-11-21T13:23:12;3.30;;;2.37;;
56102;SDS011;41970;48.774;9.280;2023-11-21T13:25:39;2.30;;;2.10;;
56102;SDS011;41970;48.774;9.280;2023-11-21T13:28:07;2.20;;;2.00;;
56102;SDS011;41970;48.774;9.280;2023-11-21T13:30:35;1.70;;;1.60;;
56102;SDS011;41970;48.774;9.280;2023-11-21T13:33:04;4.43;;;2.83;;
56102;SDS011;41970;48.774;9.280;2023-11-21T13:35:35;2.30;;;1.63;;
56102;SDS011;41970;48.774;9.280;2023-11-21T13:38:12;2.50;;;1.87;;
56102;SDS011;41970;48.774;9.280;2023-11-21T13:40:40;2.50;;;2.00;;
56102;SDS011;41970;48.774;9.280;2023-11-21T13:43:11;2.10;;;1.90;;
56102;SDS011;41970;48.774;9.280;2023-11-21T13:45:38;5.40;;;2.93;;
56102;SDS011;41970;48.774;9.280;2023-11-21T13:48:09;4.80;;;3.07;;
56102;SDS011;41970;48.774;9.280;2023-11-21T13:50:38;2.10;;;1.90;;
56102;SDS011;41970;48.774;9.280;2023-11-21T13:53:09;3.43;;;2.50;;
56102;SDS011;41970;48.774;9.280;2023-11-21T13:55:47;2.93;;;2.73;;
56102;SDS011;41970;48.774;9.280;2023-11-21T13:58:19;2.00;;;1.80;;
56102;SDS011;41970;48.774;9.280;2023-11-21T14:01:00;5.37;;;3.97;;
56102;SDS011;41970;48.774;9.280;2023-11-21T14:03:31;3.20;;;2.63;;
56102;SDS011;41970;48.774;9.280;2023-11-21T14:06:09;2.53;;;2.33;;
56102;SDS011;41970;48.774;9.280;2023-11-21T14:08:40;2.67;;;2.47;;
56102;SDS011;41970;48.774;9.280;2023-11-21T14:11:06;2.73;;;2.53;;
56102;SDS011;41970;48.774;9.280;2023-11-21T14:13:32;4.10;;;2.70;;
56102;SDS011;41970;48.774;9.280;2023-11-21T14:15:58;3.37;;;3.07;;
56102;SDS011;41970;48.774;9.280;2023-11-21T14:18:26;2.93;;;2.60;;
56102;SDS011;41970;48.774;9.280;2023-11-21T14:20:59;2.80;;;2.60;;
56102;SDS011;41970;48.774;9.280;2023-11-21T14:23:25;2.20;;;2.00;;
56102;SDS011;41970;48.774;9.280;2023-11-21T14:25:50;2.60;;;2.40;;
56102;SDS011;41970;48.774;9.280;2023-11-21T14:28:17;2.77;;;2.57;;
56102;SDS011;41970;48.774;9.280;2023-11-21T14:30:44;2.70;;;2.50;;
56102;SDS011;41970;48.774;9.280;2023-11-21T14:33:13;2.50;;;2.30;;
56102;SDS011;41970;48.774;9.280;2023-11-21T14:35:41;2.83;;;2.63;;
56102;SDS011;41970;48.774;9.280;2023-11-21T14:38:08;2.33;;;2.13;;
56102;SDS011;41970;48.774;9.280;2023-11-21T14:40:35;1.63;;;1.50;;
56102;SDS011;41970;48.774;9.280;2023-11-21T14:43:04;1.77;;;1.63;;
56102;SDS011;41970;48.774;9.280;2023-11-21T14:45:33;1.80;;;1.60;;
56102;SDS011;41970;48.774;9.280;2023-11-21T14:47:59;2.30;;;1.93;;
56102;SDS011;41970;48.774;9.280;2023-11-21T14:50:33;4.20;;;1.83;;
56102;SDS011;41970;48.774;9.280;2023-11-21T14:53:13;2.00;;;1.67;;
56102;SDS011;41970;48.774;9.280;2023-11-21T14:55:39;3.60;;;1.90;;
56102;SDS011;41970;48.774;9.280;2023-11-21T14:58:14;1.67;;;1.57;;
56102;SDS011;41970;48.774;9.280;2023-11-21T15:00:45;1.30;;;1.20;;
56102;SDS011;41970;48.774;9.280;2023-11-21T15:03:11;1.20;;;1.10;;
56102;SDS011;41970;48.774;9.280;2023-11-21T15:06:05;1.53;;;1.27;;
56102;SDS011;41970;48.774;9.280;2023-11-21T15:08:50;1.53;;;1.20;;
56102;SDS011;41970;48.774;9.280;2023-11-21T15:11:40;1.57;;;1.20;;